createdAt,value
2017-07-24T03:31:32.976Z,19.00
2017-07-24T03:34:00.648Z,19.10
2017-07-24T03:36:28.380Z,19.10
2017-07-24T03:38:56.054Z,18.90
2017-07-24T03:41:23.692Z,18.70
2017-07-24T03:43:52.492Z,18.60
2017-07-24T03:46:20.170Z,18.60
2017-07-24T03:48:48.644Z,18.70
2017-07-24T03:51:16.393Z,18.80
2017-07-24T03:53:44.059Z,19.00
2017-07-24T03:56:11.749Z,19.00
2017-07-24T03:58:39.411Z,19.20
2017-07-24T04:01:07.553Z,19.20
2017-07-24T04:03:35.981Z,18.90
2017-07-24T04:06:03.647Z,18.80
2017-07-24T04:08:31.342Z,19.00
2017-07-24T04:10:59.796Z,19.30
2017-07-24T04:13:27.464Z,19.30
2017-07-24T04:15:55.129Z,19.40
2017-07-24T04:18:22.780Z,19.30
2017-07-24T04:20:50.432Z,19.20
2017-07-24T04:23:18.536Z,19.10
2017-07-24T04:25:46.194Z,19.20
2017-07-24T04:28:14.659Z,19.30
2017-07-24T04:30:43.119Z,19.40
2017-07-24T04:33:10.778Z,19.40
2017-07-24T04:35:38.441Z,19.60
2017-07-24T04:38:06.088Z,19.70
2017-07-24T04:40:33.756Z,19.90
2017-07-24T04:43:01.413Z,19.90
2017-07-24T04:45:29.068Z,19.80
2017-07-24T04:47:56.797Z,19.60
2017-07-24T04:50:25.220Z,19.40
2017-07-24T04:52:52.904Z,19.40
2017-07-24T04:55:20.591Z,19.30
2017-07-24T04:57:48.590Z,19.20
2017-07-24T05:00:16.269Z,19.00
2017-07-24T05:02:43.962Z,18.90
2017-07-24T05:05:12.231Z,19.10
2017-07-24T05:07:39.906Z,19.30
2017-07-24T05:10:07.595Z,19.60
2017-07-24T05:12:36.541Z,20.10
2017-07-24T05:15:04.328Z,20.00
2017-07-24T05:17:32.213Z,20.20
2017-07-24T05:20:01.173Z,20.40
2017-07-24T05:22:28.909Z,20.40
2017-07-24T05:24:56.674Z,20.50
2017-07-24T05:27:24.673Z,20.60
2017-07-24T05:29:52.451Z,20.60
2017-07-24T05:32:20.099Z,20.60
2017-07-24T05:34:48.123Z,20.60
2017-07-24T05:37:15.786Z,20.60
2017-07-24T05:39:43.446Z,20.60
2017-07-24T05:42:11.501Z,20.60
2017-07-24T05:44:39.908Z,20.70
2017-07-24T05:47:07.556Z,20.70
2017-07-24T05:49:35.210Z,20.60
2017-07-24T05:52:03.624Z,20.70
2017-07-24T05:54:31.290Z,20.60
2017-07-24T05:56:58.973Z,20.70
2017-07-24T05:59:26.818Z,20.70
2017-07-24T06:01:54.470Z,20.70
2017-07-24T06:04:22.521Z,20.80
2017-07-24T06:06:50.169Z,21.10
2017-07-24T06:09:18.583Z,21.50
2017-07-24T06:11:46.245Z,21.40
2017-07-24T06:14:13.939Z,21.50
2017-07-24T06:16:41.616Z,21.50
2017-07-24T06:19:09.285Z,21.70
2017-07-24T06:21:37.263Z,21.80
2017-07-24T06:24:05.674Z,21.60
2017-07-24T06:26:33.318Z,21.60
2017-07-24T06:29:00.977Z,21.70
2017-07-24T06:31:29.401Z,21.60
2017-07-24T06:33:57.172Z,21.60
2017-07-24T06:36:24.986Z,21.60
2017-07-24T06:38:53.419Z,22.00
2017-07-24T06:41:21.147Z,22.00
2017-07-24T06:43:49.185Z,22.20
2017-07-24T06:46:17.616Z,22.10
2017-07-24T06:48:45.296Z,22.10
2017-07-24T06:51:12.943Z,22.00
2017-07-24T06:53:40.600Z,22.10
2017-07-24T06:56:08.276Z,22.00
2017-07-24T06:58:35.926Z,21.90
2017-07-24T07:01:03.648Z,22.00
2017-07-24T07:03:31.295Z,21.70
2017-07-24T07:05:59.049Z,21.80
2017-07-24T07:08:26.721Z,21.90
2017-07-24T07:10:54.402Z,21.80
2017-07-24T07:13:22.080Z,21.80
2017-07-24T07:15:49.736Z,21.90
2017-07-24T07:18:17.393Z,21.90
2017-07-24T07:20:45.053Z,21.90
2017-07-24T07:23:13.124Z,21.90
2017-07-24T07:25:40.782Z,22.00
2017-07-24T07:28:08.416Z,21.80
2017-07-24T07:30:36.087Z,21.80
2017-07-24T07:33:04.570Z,22.10
2017-07-24T07:35:33.018Z,22.30
2017-07-24T07:38:00.672Z,22.30
2017-07-24T07:40:28.397Z,22.40
2017-07-24T07:42:56.058Z,22.00
2017-07-24T07:45:23.737Z,21.60
2017-07-24T07:47:51.396Z,21.60
2017-07-24T07:50:19.068Z,21.60
2017-07-24T07:52:46.766Z,21.80
2017-07-24T07:55:14.399Z,21.90
2017-07-24T07:57:42.256Z,21.90
2017-07-24T08:00:09.911Z,21.80
2017-07-24T08:02:37.893Z,21.70
2017-07-24T08:05:05.564Z,21.50
2017-07-24T08:07:33.220Z,21.50
2017-07-24T08:10:00.891Z,21.50
2017-07-24T08:12:28.531Z,21.40
2017-07-24T08:14:56.201Z,21.50
2017-07-24T08:17:23.869Z,21.50
2017-07-24T08:19:51.549Z,21.70
2017-07-24T08:22:19.198Z,21.80
2017-07-24T08:24:47.181Z,21.90
2017-07-24T08:27:14.844Z,21.90
2017-07-24T08:29:42.534Z,21.80
2017-07-24T08:32:10.190Z,21.70
2017-07-24T08:34:37.964Z,21.50
2017-07-24T08:37:06.409Z,21.40
2017-07-24T08:39:34.062Z,21.40
2017-07-24T08:42:01.743Z,21.50
2017-07-24T08:44:29.377Z,21.50
2017-07-24T08:46:57.077Z,21.60
2017-07-24T08:49:24.752Z,21.90
2017-07-24T08:51:53.542Z,22.20
2017-07-24T08:54:22.000Z,22.20
2017-07-24T08:56:49.652Z,22.20
2017-07-24T08:59:17.675Z,22.00
2017-07-24T09:01:45.344Z,21.90
2017-07-24T09:04:13.234Z,22.00
2017-07-24T09:06:41.266Z,21.90
2017-07-24T09:09:09.064Z,21.80
2017-07-24T09:11:36.945Z,21.80
2017-07-24T09:14:05.038Z,21.80
2017-07-24T09:16:32.841Z,21.90
2017-07-24T09:19:00.650Z,21.90
2017-07-24T09:21:28.317Z,21.70
2017-07-24T09:23:56.079Z,21.60
2017-07-24T09:26:23.748Z,21.60
2017-07-24T09:28:51.397Z,21.70
2017-07-24T09:31:19.082Z,21.80
2017-07-24T09:33:46.869Z,21.80
2017-07-24T09:36:14.599Z,21.90
2017-07-24T09:38:42.352Z,22.00
2017-07-24T09:41:10.012Z,22.00
2017-07-24T09:43:37.684Z,22.10
2017-07-24T09:46:05.330Z,22.00
2017-07-24T09:48:33.052Z,21.90
2017-07-24T09:51:01.512Z,22.10
2017-07-24T09:53:29.200Z,22.10
2017-07-24T09:55:56.879Z,22.00
2017-07-24T09:58:24.929Z,21.90
2017-07-24T10:00:53.397Z,21.60
2017-07-24T10:03:21.829Z,21.60
2017-07-24T10:05:49.878Z,21.60
2017-07-24T10:08:17.535Z,21.70
2017-07-24T10:10:45.191Z,21.60
2017-07-24T10:13:12.900Z,21.70
2017-07-24T10:15:40.585Z,21.80
2017-07-24T10:18:08.257Z,21.80
2017-07-24T10:20:37.081Z,22.10
2017-07-24T10:23:04.747Z,22.10
2017-07-24T10:25:32.401Z,22.00
2017-07-24T10:28:00.084Z,21.90
2017-07-24T10:30:27.735Z,21.90
2017-07-24T10:32:55.437Z,21.90
2017-07-24T10:35:23.096Z,21.90
2017-07-24T10:37:50.784Z,21.70
2017-07-24T10:40:18.447Z,21.80
2017-07-24T10:42:47.161Z,21.80
2017-07-24T10:45:14.794Z,21.70
2017-07-24T10:47:43.514Z,21.70
2017-07-24T10:50:11.180Z,21.60
2017-07-24T10:52:38.851Z,21.60
2017-07-24T10:55:06.540Z,21.50
2017-07-24T10:57:34.214Z,21.70
2017-07-24T11:00:01.918Z,21.80
2017-07-24T11:02:29.615Z,21.80
2017-07-24T11:04:57.636Z,21.70
2017-07-24T11:07:25.280Z,21.80
2017-07-24T11:09:52.923Z,21.80
2017-07-24T11:12:20.670Z,21.60
2017-07-24T11:14:48.322Z,21.30
2017-07-24T11:17:16.035Z,21.40
2017-07-24T11:19:44.481Z,21.50
2017-07-24T11:22:12.157Z,21.40
2017-07-24T11:24:39.809Z,21.40
2017-07-24T11:27:10.531Z,21.60
2017-07-24T11:29:38.246Z,21.80
2017-07-24T11:32:05.885Z,21.80
2017-07-24T11:34:33.888Z,21.80
2017-07-24T11:37:01.554Z,22.00
2017-07-24T11:39:29.223Z,21.80
2017-07-24T11:41:56.901Z,21.80
2017-07-24T11:44:24.571Z,21.70
2017-07-24T11:46:52.352Z,21.40
2017-07-24T11:49:20.105Z,21.30
2017-07-24T11:51:47.753Z,21.30
2017-07-24T11:54:15.424Z,21.20
2017-07-24T11:56:43.097Z,21.20
2017-07-24T11:59:10.759Z,21.20
2017-07-24T12:01:38.420Z,21.20
2017-07-24T12:04:06.084Z,21.20
2017-07-24T12:06:34.067Z,21.20
2017-07-24T12:09:01.716Z,21.20
2017-07-24T12:11:29.366Z,21.10
2017-07-24T12:13:57.069Z,21.00
2017-07-24T12:16:25.476Z,21.10
2017-07-24T12:18:53.131Z,21.10
2017-07-24T12:21:20.770Z,21.00
2017-07-24T12:23:49.198Z,20.70
2017-07-24T12:26:16.850Z,20.70
2017-07-24T12:28:44.844Z,20.60
2017-07-24T12:31:12.521Z,20.80
2017-07-24T12:33:40.347Z,20.90
2017-07-24T12:36:08.112Z,21.00
2017-07-24T12:38:36.480Z,20.70
2017-07-24T12:41:04.764Z,19.50
2017-07-24T12:43:32.408Z,18.60
2017-07-24T12:46:00.100Z,17.90
2017-07-24T12:48:27.821Z,17.70
2017-07-24T12:50:56.297Z,17.50
2017-07-24T12:53:23.946Z,17.50
2017-07-24T12:55:52.708Z,17.80
2017-07-24T12:58:20.365Z,17.80
2017-07-24T13:00:48.038Z,17.90
2017-07-24T13:03:15.720Z,17.90
2017-07-24T13:05:43.353Z,18.10
2017-07-24T13:08:11.023Z,18.30
2017-07-24T13:10:38.698Z,18.40
2017-07-24T13:13:06.699Z,18.30
2017-07-24T13:15:34.405Z,17.80
2017-07-24T13:18:02.056Z,17.80
2017-07-24T13:20:29.750Z,17.70
2017-07-24T13:22:57.497Z,17.60
2017-07-24T13:25:25.176Z,17.90
2017-07-24T13:27:52.803Z,17.50
2017-07-24T13:30:20.476Z,17.70
2017-07-24T13:32:48.168Z,17.70
2017-07-24T13:35:16.182Z,17.90
2017-07-24T13:37:43.907Z,17.90
2017-07-24T13:40:11.573Z,17.80
2017-07-24T13:42:39.269Z,17.90
2017-07-24T13:45:07.242Z,17.90
2017-07-24T13:47:35.156Z,18.10
2017-07-24T13:50:02.846Z,18.20
2017-07-24T13:52:31.682Z,18.20
2017-07-24T13:54:59.860Z,18.10
2017-07-24T13:57:27.509Z,18.10
2017-07-24T13:59:55.375Z,18.10
2017-07-24T14:02:23.039Z,18.00
2017-07-24T14:04:50.798Z,18.20
2017-07-24T14:07:18.454Z,18.30
2017-07-24T14:09:46.524Z,17.90
2017-07-24T14:12:14.486Z,17.70
2017-07-24T14:14:42.154Z,18.00
2017-07-24T14:17:10.216Z,18.10
2017-07-24T14:19:37.877Z,18.20
2017-07-24T14:22:05.554Z,18.40
2017-07-24T14:24:33.720Z,18.40
2017-07-24T14:40:01.590Z,18.50
2017-07-24T14:42:29.267Z,17.60
2017-07-24T14:44:56.951Z,17.40
2017-07-24T14:47:24.747Z,17.50
2017-07-24T14:49:53.165Z,17.90
2017-07-24T14:52:21.283Z,17.90
2017-07-24T14:54:49.857Z,17.90
2017-07-24T14:57:17.519Z,17.90
2017-07-24T14:59:46.716Z,17.70
2017-07-24T15:02:17.010Z,18.20
2017-07-24T15:04:44.756Z,18.20
2017-07-24T15:07:12.550Z,18.60
2017-07-24T15:09:40.238Z,18.70
2017-07-24T15:12:07.959Z,18.80
2017-07-24T15:14:35.638Z,18.80
2017-07-24T15:19:25.061Z,19.10
2017-07-24T15:21:53.481Z,19.20
2017-07-24T15:24:21.156Z,19.20
2017-07-24T15:26:48.818Z,19.30
2017-07-24T15:29:16.865Z,19.50
2017-07-24T15:31:44.586Z,19.80
2017-07-24T15:34:12.565Z,19.70
2017-07-24T15:36:41.030Z,19.20
2017-07-24T15:39:08.705Z,19.20
2017-07-24T15:41:36.366Z,19.50
2017-07-24T15:44:04.053Z,19.70
2017-07-24T15:46:31.769Z,19.60
2017-07-24T15:48:59.444Z,19.10
2017-07-24T15:51:27.226Z,19.20
2017-07-24T15:53:56.077Z,19.80
2017-07-24T15:56:24.574Z,20.10
2017-07-24T15:58:52.355Z,20.10
2017-07-24T16:01:20.060Z,20.30
2017-07-24T16:03:48.179Z,20.00
2017-07-24T16:06:16.734Z,20.30
2017-07-24T16:08:44.389Z,20.20
2017-07-24T16:11:12.189Z,20.10
2017-07-24T16:13:39.849Z,19.90
2017-07-24T16:16:07.587Z,19.70
2017-07-24T16:18:35.461Z,19.80
2017-07-24T16:21:03.155Z,19.90
2017-07-24T16:23:30.945Z,19.90
2017-07-24T16:25:58.702Z,20.00
2017-07-24T16:28:27.182Z,20.40
2017-07-24T16:30:55.658Z,20.10
2017-07-24T16:33:23.423Z,20.10
2017-07-24T16:35:51.862Z,19.90
2017-07-24T16:38:19.600Z,19.90
2017-07-24T16:40:47.280Z,19.90
2017-07-24T16:43:14.928Z,19.80
2017-07-24T16:45:42.632Z,19.70
2017-07-24T16:48:10.299Z,19.40
2017-07-24T16:50:38.212Z,19.40
2017-07-24T16:53:05.858Z,19.40
2017-07-24T16:55:33.630Z,19.40
2017-07-24T16:58:01.283Z,19.40
2017-07-24T17:00:28.998Z,19.40
2017-07-24T17:02:56.726Z,19.20
2017-07-24T17:05:24.399Z,19.10
2017-07-24T17:07:52.103Z,19.10
2017-07-24T17:10:19.806Z,19.30
2017-07-24T17:12:47.521Z,19.60
2017-07-24T17:15:15.210Z,19.80
2017-07-24T17:17:43.638Z,19.80
2017-07-24T17:20:11.494Z,19.80
2017-07-24T17:22:39.157Z,19.80
2017-07-24T17:25:06.828Z,19.70
2017-07-24T17:27:34.485Z,19.60
2017-07-24T17:30:02.198Z,19.50
2017-07-24T17:32:30.637Z,19.50
2017-07-24T17:34:58.759Z,19.50
2017-07-24T17:37:27.221Z,19.40
2017-07-24T17:39:54.906Z,19.30
2017-07-24T17:42:23.634Z,19.50
2017-07-24T17:44:51.314Z,19.40
2017-07-24T17:47:18.991Z,19.10
2017-07-24T17:49:47.146Z,19.10
2017-07-24T17:52:14.887Z,19.30
2017-07-24T17:54:42.600Z,19.40
2017-07-24T17:57:10.696Z,19.30
2017-07-24T17:59:38.368Z,19.30
2017-07-24T18:02:06.054Z,19.20
2017-07-24T18:04:33.767Z,19.10
2017-07-24T18:07:02.210Z,18.90
2017-07-24T18:09:29.910Z,18.90
2017-07-24T18:11:58.990Z,18.80
2017-07-24T18:14:26.781Z,18.80
2017-07-24T18:16:54.442Z,18.70
2017-07-24T18:19:22.880Z,18.70
2017-07-24T18:21:51.185Z,18.70
2017-07-24T18:24:18.890Z,18.90
2017-07-24T18:26:46.922Z,19.00
2017-07-24T18:29:16.115Z,18.90
2017-07-24T18:31:44.572Z,18.80
2017-07-24T18:34:12.383Z,18.80
2017-07-24T18:36:40.046Z,18.60
2017-07-24T18:39:07.732Z,18.40
2017-07-24T18:41:35.582Z,18.40
2017-07-24T18:44:03.264Z,18.30
2017-07-24T18:46:30.969Z,18.10
2017-07-24T18:48:58.863Z,18.00
2017-07-24T18:51:27.347Z,17.80
2017-07-24T18:53:55.041Z,17.80
2017-07-24T18:56:23.061Z,17.80
2017-07-24T18:58:51.501Z,17.70
2017-07-24T19:01:19.177Z,17.70
2017-07-24T19:03:46.896Z,17.70
2017-07-24T19:06:14.569Z,17.90
2017-07-24T19:08:42.261Z,17.90
2017-07-24T19:11:10.146Z,17.80
2017-07-24T19:13:37.856Z,17.70
2017-07-24T19:16:06.237Z,17.70
2017-07-24T19:18:34.012Z,17.70
2017-07-24T19:21:01.719Z,17.70
2017-07-24T19:23:29.422Z,17.70
2017-07-24T19:25:57.107Z,17.80
2017-07-24T19:28:24.781Z,17.70
2017-07-24T19:30:52.556Z,17.40
2017-07-24T19:33:20.900Z,17.30
2017-07-24T19:35:48.845Z,17.40
2017-07-24T19:38:16.501Z,17.40
2017-07-24T19:40:44.289Z,17.50
2017-07-24T19:43:11.974Z,17.50
2017-07-24T19:45:40.402Z,17.50
2017-07-24T19:48:09.008Z,17.50
2017-07-24T19:50:36.697Z,17.50
2017-07-24T19:53:04.356Z,17.20
2017-07-24T19:55:32.193Z,16.90
2017-07-24T19:57:59.842Z,17.00
2017-07-24T20:00:28.464Z,17.00
2017-07-24T20:02:56.493Z,17.00
2017-07-24T20:05:24.927Z,17.30
2017-07-24T20:07:52.587Z,17.20
2017-07-24T20:10:20.261Z,17.20
2017-07-24T20:12:47.931Z,17.20
2017-07-24T20:15:15.621Z,17.00
2017-07-24T20:17:43.415Z,16.90
2017-07-24T20:20:11.297Z,16.70
2017-07-24T20:22:38.998Z,16.70
2017-07-24T20:25:06.634Z,16.70
2017-07-24T20:27:34.441Z,16.60
2017-07-24T20:30:02.859Z,16.20
2017-07-24T20:32:30.568Z,16.20
2017-07-24T20:34:58.720Z,16.40
2017-07-24T20:37:26.417Z,16.50
2017-07-24T20:39:54.855Z,16.60
2017-07-24T20:42:22.657Z,16.60
2017-07-24T20:44:51.089Z,16.60
2017-07-24T20:47:18.781Z,16.60
2017-07-24T20:49:46.723Z,16.70
2017-07-24T20:52:14.403Z,16.90
2017-07-24T20:54:42.059Z,16.80
2017-07-24T20:57:09.867Z,16.60
2017-07-24T20:59:38.285Z,16.60
2017-07-24T21:02:05.988Z,16.60
2017-07-24T21:04:33.994Z,16.60
2017-07-24T21:07:01.693Z,16.60
2017-07-24T21:09:29.378Z,16.40
2017-07-24T21:11:57.380Z,16.50
2017-07-24T21:14:25.090Z,16.50
2017-07-24T21:16:52.777Z,16.40
2017-07-24T21:19:20.770Z,16.60
2017-07-24T21:21:48.457Z,16.70
2017-07-24T21:24:16.093Z,16.90
2017-07-24T21:26:44.614Z,16.70
2017-07-24T21:29:12.270Z,16.70
2017-07-24T21:31:40.266Z,16.60
2017-07-24T21:34:08.749Z,16.60
2017-07-24T21:36:37.152Z,16.60
2017-07-24T21:39:05.589Z,16.60
2017-07-24T21:41:33.361Z,16.60
2017-07-24T21:44:01.056Z,16.70
2017-07-24T21:46:29.482Z,16.20
2017-07-24T21:48:57.273Z,16.20
2017-07-24T21:51:25.107Z,16.30
2017-07-24T21:53:52.823Z,16.50
2017-07-24T21:56:20.725Z,16.70
2017-07-24T21:58:48.366Z,16.90
2017-07-24T22:01:16.781Z,16.90
2017-07-24T22:03:44.664Z,16.90
2017-07-24T22:06:12.335Z,17.00
2017-07-24T22:08:39.993Z,16.90
2017-07-24T22:11:07.779Z,16.70
2017-07-24T22:13:35.412Z,16.80
2017-07-24T22:16:03.170Z,16.80
2017-07-24T22:18:31.201Z,16.70
2017-07-24T22:20:58.967Z,16.80
2017-07-24T22:23:27.470Z,16.80
2017-07-24T22:25:55.532Z,16.80
2017-07-24T22:28:23.225Z,16.70
